createdAt,value
2022-12-15T00:00:25.715Z,39.25
2022-12-15T00:03:12.828Z,37.60
2022-12-15T00:05:59.911Z,37.55
2022-12-15T00:08:46.900Z,36.70
2022-12-15T00:11:33.811Z,36.53
2022-12-15T00:14:20.776Z,38.67
2022-12-15T00:17:07.703Z,38.53
2022-12-15T00:19:54.847Z,36.95
2022-12-15T00:22:41.840Z,37.17
2022-12-15T00:25:28.882Z,37.90
2022-12-15T00:28:17.235Z,37.92
2022-12-15T00:31:04.287Z,37.15
2022-12-15T00:33:51.268Z,39.30
2022-12-15T00:36:38.263Z,39.15
2022-12-15T00:39:05.469Z,39.58
2022-12-15T00:41:32.713Z,38.75
2022-12-15T00:43:59.726Z,37.80
2022-12-15T00:46:46.810Z,38.00
2022-12-15T00:49:33.883Z,38.70
2022-12-15T00:52:20.823Z,37.78
2022-12-15T00:55:07.778Z,37.58
2022-12-15T00:57:54.985Z,37.20
2022-12-15T01:00:42.778Z,36.33
2022-12-15T01:03:35.667Z,36.08
2022-12-15T01:06:28.393Z,33.60
2022-12-15T01:09:15.783Z,34.97
2022-12-15T01:12:04.146Z,35.70
2022-12-15T01:14:51.430Z,36.35
2022-12-15T01:17:38.617Z,38.55
2022-12-15T01:20:22.411Z,38.33
2022-12-15T01:22:52.986Z,37.78
2022-12-15T01:25:23.169Z,37.67
2022-12-15T01:27:50.722Z,38.60
2022-12-15T01:30:21.529Z,38.58
2022-12-15T01:32:49.247Z,37.13
2022-12-15T01:35:16.614Z,37.25
2022-12-15T01:37:43.936Z,37.42
2022-12-15T01:40:36.959Z,38.67
2022-12-15T01:43:04.122Z,39.58
2022-12-15T01:45:31.386Z,39.28
2022-12-15T01:48:06.121Z,38.33
2022-12-15T01:50:39.883Z,37.58
2022-12-15T01:53:07.302Z,30.30
2022-12-15T01:55:34.659Z,36.70
2022-12-15T01:58:05.454Z,38.60
2022-12-15T02:00:34.507Z,37.20
2022-12-15T02:03:02.730Z,38.65
2022-12-15T02:05:31.825Z,37.63
2022-12-15T02:08:00.554Z,37.08
2022-12-15T02:10:34.531Z,37.22
2022-12-15T02:13:09.251Z,39.35
2022-12-15T02:15:46.914Z,36.08
2022-12-15T02:18:40.443Z,38.20
2022-12-15T02:21:34.605Z,37.17
2022-12-15T02:24:11.092Z,37.17
2022-12-15T02:27:01.573Z,36.28
2022-12-15T02:29:48.607Z,36.58
2022-12-15T02:32:24.568Z,36.50
2022-12-15T02:34:55.881Z,37.38
2022-12-15T02:37:26.448Z,39.00
2022-12-15T02:39:53.519Z,39.13
2022-12-15T02:42:22.172Z,37.83
2022-12-15T02:44:52.442Z,37.88
2022-12-15T02:47:27.965Z,39.65
2022-12-15T02:50:34.918Z,37.40
2022-12-15T02:53:22.058Z,37.00
2022-12-15T02:56:00.827Z,37.78
2022-12-15T02:58:39.576Z,38.42
2022-12-15T03:01:26.403Z,37.80
2022-12-15T03:03:55.799Z,38.45
2022-12-15T03:06:25.763Z,38.85
2022-12-15T03:08:52.917Z,36.95
2022-12-15T03:11:20.036Z,40.28
2022-12-15T03:13:47.160Z,38.05
2022-12-15T03:16:17.268Z,39.50
2022-12-15T03:18:44.456Z,37.58
2022-12-15T03:21:11.736Z,39.00
2022-12-15T03:23:38.879Z,38.72
2022-12-15T03:26:06.768Z,37.78
2022-12-15T03:28:34.440Z,38.90
2022-12-15T03:31:01.662Z,38.65
2022-12-15T03:33:28.847Z,40.40
2022-12-15T03:35:56.725Z,39.92
2022-12-15T03:38:23.762Z,39.83
2022-12-15T03:40:50.972Z,39.88
2022-12-15T03:43:18.089Z,37.25
2022-12-15T03:45:45.223Z,39.88
2022-12-15T03:48:12.318Z,37.97
2022-12-15T03:50:39.827Z,38.30
2022-12-15T03:53:07.395Z,38.28
2022-12-15T03:55:35.371Z,36.17
2022-12-15T03:58:02.915Z,39.65
2022-12-15T04:00:30.264Z,38.25
2022-12-15T04:02:57.533Z,39.00
2022-12-15T04:05:28.583Z,38.92
2022-12-15T04:07:58.036Z,39.47
2022-12-15T04:10:31.893Z,37.75
2022-12-15T04:13:07.424Z,39.60
2022-12-15T04:15:36.113Z,38.20
2022-12-15T04:18:06.318Z,40.40
2022-12-15T04:20:33.572Z,38.42
2022-12-15T04:23:00.842Z,39.35
2022-12-15T04:25:48.251Z,39.72
2022-12-15T04:28:35.276Z,37.95
2022-12-15T04:31:36.756Z,40.13
2022-12-15T04:34:26.426Z,40.00
2022-12-15T04:37:14.452Z,39.38
2022-12-15T04:40:12.060Z,39.95
2022-12-15T04:43:03.407Z,39.40
2022-12-15T04:45:50.568Z,38.72
2022-12-15T04:48:37.702Z,38.10
2022-12-15T04:51:24.696Z,38.55
2022-12-15T04:54:11.764Z,37.55
2022-12-15T04:56:58.720Z,38.88
2022-12-15T04:59:45.759Z,38.50
2022-12-15T05:02:32.906Z,38.10
2022-12-15T05:05:20.013Z,38.05
2022-12-15T05:08:07.162Z,37.50
2022-12-15T05:10:54.117Z,38.53
2022-12-15T05:13:41.150Z,38.58
2022-12-15T05:16:28.178Z,37.55
2022-12-15T05:19:15.120Z,38.85
2022-12-15T05:22:02.239Z,38.85
2022-12-15T05:24:49.199Z,38.38
2022-12-15T05:27:36.163Z,41.22
2022-12-15T05:30:23.294Z,40.83
2022-12-15T05:32:50.537Z,39.03
2022-12-15T05:35:17.842Z,39.53
2022-12-15T05:37:45.236Z,39.17
2022-12-15T05:40:12.610Z,40.35
2022-12-15T05:42:39.656Z,39.45
2022-12-15T05:45:07.246Z,38.33
2022-12-15T05:47:34.293Z,38.28
2022-12-15T05:50:01.348Z,38.35
2022-12-15T05:52:28.698Z,36.67
2022-12-15T05:54:56.158Z,39.10
2022-12-15T05:57:23.417Z,39.05
2022-12-15T05:59:50.532Z,37.65
2022-12-15T06:02:17.769Z,37.85
2022-12-15T06:04:44.924Z,37.80
2022-12-15T06:07:12.115Z,37.65
2022-12-15T06:09:39.555Z,37.38
2022-12-15T06:12:06.992Z,36.28
2022-12-15T06:14:34.165Z,35.15
2022-12-15T06:17:01.438Z,37.97
2022-12-15T06:19:28.629Z,36.00
2022-12-15T06:21:55.707Z,36.95
2022-12-15T06:24:22.965Z,37.47
2022-12-15T06:26:50.079Z,36.42
2022-12-15T06:29:18.380Z,36.08
2022-12-15T06:31:45.675Z,37.53
2022-12-15T06:34:14.646Z,37.70
2022-12-15T06:36:42.125Z,37.63
2022-12-15T06:39:13.278Z,37.53
2022-12-15T06:41:41.440Z,36.25
2022-12-15T06:44:13.102Z,39.35
2022-12-15T06:46:40.237Z,40.50
2022-12-15T06:49:09.117Z,42.42
2022-12-15T06:51:36.732Z,41.67
2022-12-15T06:54:04.078Z,41.67
2022-12-15T06:56:34.869Z,42.00
2022-12-15T06:59:03.892Z,43.03
2022-12-15T07:01:32.033Z,42.53
2022-12-15T07:04:01.715Z,41.90
2022-12-15T07:06:36.553Z,42.58
2022-12-15T07:09:08.650Z,42.00
2022-12-15T07:11:36.121Z,39.17
2022-12-15T07:14:04.034Z,37.83
2022-12-15T07:16:31.394Z,37.97
2022-12-15T07:18:58.607Z,40.13
2022-12-15T07:21:25.888Z,38.10
2022-12-15T07:23:55.263Z,39.33
2022-12-15T07:26:23.980Z,35.35
2022-12-15T07:28:51.611Z,35.65
2022-12-15T07:31:19.066Z,35.60
2022-12-15T07:33:48.472Z,35.13
2022-12-15T07:36:16.104Z,33.25
2022-12-15T07:38:45.663Z,33.10
2022-12-15T07:41:18.790Z,33.38
2022-12-15T07:43:47.346Z,33.42
2022-12-15T07:46:14.588Z,31.65
2022-12-15T07:48:41.684Z,29.90
2022-12-15T07:51:15.561Z,29.92
2022-12-15T07:53:44.975Z,34.35
2022-12-15T07:56:12.034Z,33.20
2022-12-15T07:58:39.382Z,37.00
2022-12-15T08:01:10.480Z,40.75
2022-12-15T08:03:39.440Z,39.53
2022-12-15T08:06:10.450Z,39.55
2022-12-15T08:08:37.844Z,40.15
2022-12-15T08:11:06.492Z,39.97
2022-12-15T08:16:22.145Z,41.45
2022-12-15T08:18:49.809Z,39.60
2022-12-15T08:21:18.136Z,39.10
2022-12-15T08:23:45.806Z,40.25
2022-12-15T08:26:17.046Z,43.28
2022-12-15T08:28:44.823Z,41.97
2022-12-15T08:31:16.815Z,41.70
2022-12-15T08:33:45.056Z,41.63
2022-12-15T08:36:13.940Z,41.47
2022-12-15T08:38:42.983Z,43.72
2022-12-15T08:41:16.226Z,41.53
2022-12-15T08:43:48.455Z,39.75
2022-12-15T08:46:18.471Z,41.78
2022-12-15T08:48:46.598Z,42.42
2022-12-15T08:51:14.363Z,39.97
2022-12-15T08:53:41.732Z,38.30
2022-12-15T08:56:13.020Z,39.17
2022-12-15T08:58:40.763Z,37.97
2022-12-15T09:01:12.284Z,37.00
2022-12-15T09:03:42.010Z,35.58
2022-12-15T09:06:14.967Z,35.10
2022-12-15T09:08:42.680Z,34.42
2022-12-15T09:11:10.017Z,36.67
2022-12-15T09:13:37.996Z,36.58
2022-12-15T09:16:10.302Z,34.78
2022-12-15T09:18:38.331Z,35.65
2022-12-15T09:21:07.907Z,35.47
2022-12-15T09:23:36.187Z,34.38
2022-12-15T09:26:06.217Z,36.20
2022-12-15T09:28:33.601Z,38.10
2022-12-15T09:31:06.275Z,38.28
2022-12-15T09:33:34.309Z,37.85
2022-12-15T09:36:02.008Z,36.88
2022-12-15T09:38:29.466Z,38.28
2022-12-15T09:40:57.161Z,39.63
2022-12-15T09:43:35.772Z,39.33
2022-12-15T09:46:17.615Z,39.70
2022-12-15T09:48:46.576Z,37.85
2022-12-15T09:51:18.138Z,37.65
2022-12-15T09:53:55.586Z,41.28
2022-12-15T09:56:32.847Z,39.63
2022-12-15T09:59:10.787Z,37.45
2022-12-15T10:01:49.476Z,37.42
2022-12-15T10:04:37.979Z,37.25
2022-12-15T10:07:15.800Z,38.70
2022-12-15T10:09:43.680Z,38.92
2022-12-15T10:12:19.117Z,38.17
2022-12-15T10:15:03.292Z,42.03
2022-12-15T10:17:54.599Z,39.15
2022-12-15T10:20:26.550Z,40.13
2022-12-15T10:22:56.791Z,40.53
2022-12-15T10:25:30.379Z,40.83
2022-12-15T10:28:37.902Z,39.05
2022-12-15T10:31:16.138Z,42.60
2022-12-15T10:33:50.317Z,38.33
2022-12-15T10:36:17.565Z,39.53
2022-12-15T10:41:35.228Z,42.00
2022-12-15T10:44:02.882Z,42.45
2022-12-15T10:46:32.020Z,43.05
2022-12-15T10:49:19.186Z,42.08
2022-12-15T10:51:50.466Z,42.85
2022-12-15T10:54:19.296Z,42.70
2022-12-15T10:56:56.036Z,43.38
2022-12-15T10:59:39.040Z,43.25
2022-12-15T11:02:25.280Z,43.63
2022-12-15T11:05:16.047Z,44.72
2022-12-15T11:07:46.239Z,45.08
2022-12-15T11:10:50.035Z,46.42
2022-12-15T11:13:20.553Z,44.75
2022-12-15T11:15:51.389Z,44.85
2022-12-15T11:18:36.097Z,44.92
2022-12-15T11:21:06.245Z,46.80
2022-12-15T11:24:01.756Z,46.75
2022-12-15T11:26:49.175Z,46.17
2022-12-15T11:29:23.444Z,45.85
2022-12-15T11:31:52.729Z,45.75
2022-12-15T11:34:25.125Z,49.30
2022-12-15T11:37:09.289Z,48.28
2022-12-15T11:39:56.257Z,50.20
2022-12-15T11:43:02.895Z,47.83
2022-12-15T11:45:57.366Z,53.08
2022-12-15T11:48:51.999Z,50.22
2022-12-15T11:51:52.345Z,51.10
2022-12-15T11:54:46.942Z,52.08
2022-12-15T11:57:56.051Z,54.88
2022-12-15T12:00:23.945Z,50.95
2022-12-15T12:03:02.167Z,52.50
2022-12-15T12:05:55.655Z,50.22
2022-12-15T12:08:31.495Z,53.65
2022-12-15T12:11:05.521Z,55.75
2022-12-15T12:14:12.418Z,53.80
2022-12-15T12:16:50.575Z,53.40
2022-12-15T12:19:27.209Z,54.08
2022-12-15T12:22:04.195Z,53.55
2022-12-15T12:24:39.478Z,52.75
2022-12-15T12:27:34.151Z,54.60
2022-12-15T12:30:10.120Z,42.83
2022-12-15T12:33:03.194Z,53.95
2022-12-15T12:35:44.675Z,52.13
2022-12-15T12:38:13.307Z,53.10
2022-12-15T12:40:41.417Z,54.30
2022-12-15T12:43:14.232Z,54.88
2022-12-15T12:45:57.501Z,54.28
2022-12-15T12:48:37.965Z,37.75
2022-12-15T12:51:27.833Z,52.78
2022-12-15T12:53:56.060Z,51.78
2022-12-15T12:56:31.771Z,47.63
2022-12-15T12:58:59.302Z,51.65
2022-12-15T13:01:27.135Z,55.00
2022-12-15T13:04:34.249Z,52.65
2022-12-15T13:07:08.906Z,51.80
2022-12-15T13:09:41.741Z,51.42
2022-12-15T13:15:39.312Z,52.15
2022-12-15T13:18:08.647Z,52.03
2022-12-15T13:20:37.969Z,53.55
2022-12-15T13:23:22.235Z,55.03
2022-12-15T13:26:05.103Z,54.92
2022-12-15T13:28:43.329Z,53.92
2022-12-15T13:31:19.032Z,54.42
2022-12-15T13:34:12.613Z,53.70
2022-12-15T13:36:40.853Z,52.28
2022-12-15T13:39:23.662Z,52.03
2022-12-15T13:42:31.500Z,53.50
2022-12-15T13:44:44.238Z,55.97
2022-12-15T13:47:22.643Z,40.10
2022-12-15T13:50:03.758Z,52.78
2022-12-15T13:55:37.433Z,51.63
2022-12-15T13:58:16.769Z,52.22
2022-12-15T14:00:54.618Z,53.90
2022-12-15T14:03:22.553Z,51.47
2022-12-15T14:05:53.449Z,55.45
2022-12-15T14:08:23.490Z,55.20
2022-12-15T14:10:54.983Z,52.08
2022-12-15T14:13:30.365Z,53.97
2022-12-15T14:16:03.277Z,54.15
2022-12-15T14:18:34.772Z,54.45
2022-12-15T14:21:05.935Z,53.85
2022-12-15T14:23:52.481Z,51.53
2022-12-15T14:26:31.778Z,51.40
2022-12-15T14:29:02.729Z,53.28
2022-12-15T14:31:31.010Z,55.08
2022-12-15T14:34:06.467Z,55.33
2022-12-15T14:36:33.997Z,54.97
2022-12-15T14:39:05.629Z,53.47
2022-12-15T14:41:37.833Z,49.60
2022-12-15T14:44:32.023Z,51.72
2022-12-15T14:47:00.248Z,50.92
2022-12-15T14:49:31.198Z,51.83
2022-12-15T14:52:03.318Z,51.80
2022-12-15T14:54:49.736Z,51.47
2022-12-15T14:57:23.837Z,51.83
2022-12-15T14:59:53.293Z,50.60
2022-12-15T15:02:27.011Z,52.47
2022-12-15T15:03:04.066Z,41.75
2022-12-15T15:03:07.366Z,53.75
2022-12-15T15:05:05.089Z,52.67
2022-12-15T15:07:33.738Z,53.03
2022-12-15T15:10:03.044Z,52.17
2022-12-15T15:12:47.641Z,49.25
2022-12-15T15:15:19.921Z,50.45
2022-12-15T15:17:51.123Z,55.00
2022-12-15T15:20:30.420Z,52.92
2022-12-15T15:23:11.133Z,52.30
2022-12-15T15:25:41.640Z,52.80
2022-12-15T15:28:28.111Z,52.58
2022-12-15T15:30:58.064Z,51.30
2022-12-15T15:33:26.435Z,50.15
2022-12-15T15:35:56.665Z,52.22
2022-12-15T15:38:27.469Z,48.80
2022-12-15T15:40:57.159Z,52.33
2022-12-15T15:43:25.977Z,49.55
2022-12-15T15:46:02.263Z,48.90
2022-12-15T15:48:35.171Z,48.97
2022-12-15T15:51:04.790Z,48.20
2022-12-15T15:53:34.324Z,47.85
2022-12-15T15:56:03.776Z,48.78
2022-12-15T15:58:31.594Z,48.90
2022-12-15T16:00:58.995Z,49.58
2022-12-15T16:03:26.686Z,47.60
2022-12-15T16:05:53.860Z,49.25
2022-12-15T16:08:31.757Z,50.53
2022-12-15T16:10:59.508Z,47.72
2022-12-15T16:13:27.244Z,49.90
2022-12-15T16:15:54.984Z,49.08
2022-12-15T16:18:22.333Z,52.35
2022-12-15T16:20:51.672Z,48.83
2022-12-15T16:23:24.131Z,48.58
2022-12-15T16:25:53.890Z,48.80
2022-12-15T16:28:23.546Z,49.97
2022-12-15T16:30:51.358Z,50.92
2022-12-15T16:33:19.161Z,49.75
2022-12-15T16:35:48.518Z,52.60
2022-12-15T16:38:32.011Z,50.65
2022-12-15T16:41:06.872Z,51.03
2022-12-15T16:43:39.165Z,48.25
2022-12-15T16:46:12.758Z,49.28
2022-12-15T16:48:40.710Z,47.20
2022-12-15T16:51:10.867Z,47.15
2022-12-15T16:53:41.182Z,46.95
2022-12-15T16:56:13.196Z,47.47
2022-12-15T16:58:40.495Z,44.58
2022-12-15T17:01:09.605Z,45.20
2022-12-15T17:03:36.898Z,43.88
2022-12-15T17:06:07.758Z,43.67
2022-12-15T17:08:52.467Z,46.13
2022-12-15T17:11:24.688Z,47.70
2022-12-15T17:13:53.907Z,48.55
2022-12-15T17:16:23.580Z,48.10
2022-12-15T17:18:51.640Z,51.47
2022-12-15T17:21:23.941Z,49.97
2022-12-15T17:23:54.264Z,49.35
2022-12-15T17:26:31.649Z,45.03
2022-12-15T17:29:06.280Z,44.60
2022-12-15T17:31:35.927Z,46.45
2022-12-15T17:34:28.066Z,45.67
2022-12-15T17:37:00.784Z,47.58
2022-12-15T17:39:29.514Z,46.80
2022-12-15T17:42:01.523Z,48.50
2022-12-15T17:44:36.780Z,47.70
2022-12-15T17:47:07.725Z,47.58
2022-12-15T17:49:38.376Z,47.42
2022-12-15T17:52:28.053Z,45.90
2022-12-15T17:54:55.896Z,46.42
2022-12-15T17:57:23.242Z,46.92
2022-12-15T17:59:50.331Z,50.47
2022-12-15T18:02:17.695Z,50.40
2022-12-15T18:04:45.148Z,48.13
2022-12-15T18:07:28.081Z,46.97
2022-12-15T18:09:55.461Z,46.20
2022-12-15T18:12:25.728Z,49.75
2022-12-15T18:14:54.785Z,48.35
2022-12-15T18:17:22.798Z,47.70
2022-12-15T18:19:50.555Z,46.30
2022-12-15T18:22:22.753Z,44.33
2022-12-15T18:24:53.191Z,48.45
2022-12-15T18:27:24.603Z,43.60
2022-12-15T18:29:52.829Z,44.90
2022-12-15T18:32:23.624Z,44.70
2022-12-15T18:34:51.296Z,44.35
2022-12-15T18:37:21.219Z,50.03
2022-12-15T18:39:50.610Z,47.92
2022-12-15T18:42:20.446Z,48.85
2022-12-15T18:44:50.352Z,47.50
2022-12-15T18:47:21.119Z,46.88
2022-12-15T18:49:48.352Z,49.20
2022-12-15T18:52:22.703Z,46.75
2022-12-15T18:57:36.951Z,49.38
2022-12-15T19:00:14.948Z,49.50
2022-12-15T19:02:43.087Z,50.05
2022-12-15T19:05:27.938Z,51.35
2022-12-15T19:10:27.264Z,47.47
2022-12-15T19:12:58.594Z,48.13
2022-12-15T19:15:26.647Z,49.33
2022-12-15T19:18:13.695Z,49.33
2022-12-15T19:21:01.329Z,48.83
2022-12-15T19:23:28.887Z,46.90
2022-12-15T19:25:56.427Z,48.00
2022-12-15T19:28:24.469Z,49.00
2022-12-15T19:30:52.392Z,48.05
2022-12-15T19:33:20.368Z,47.92
2022-12-15T19:35:51.244Z,49.58
2022-12-15T19:38:24.878Z,47.40
2022-12-15T19:40:53.807Z,37.43
2022-12-15T19:43:23.631Z,47.40
2022-12-15T19:45:52.205Z,49.28
2022-12-15T19:48:23.343Z,47.03
2022-12-15T19:50:52.512Z,47.22
2022-12-15T19:53:25.824Z,48.08
2022-12-15T19:55:56.044Z,50.25
2022-12-15T19:58:34.497Z,49.05
2022-12-15T20:01:10.358Z,51.13
2022-12-15T20:03:38.761Z,50.03
2022-12-15T20:06:17.173Z,51.78
2022-12-15T20:08:47.524Z,49.20
2022-12-15T20:11:19.554Z,51.47
2022-12-15T20:13:48.383Z,50.88
2022-12-15T20:16:19.226Z,48.67
2022-12-15T20:18:49.074Z,49.45
2022-12-15T20:21:22.236Z,49.28
2022-12-15T20:23:54.028Z,49.28
2022-12-15T20:26:24.507Z,51.70
2022-12-15T20:28:53.098Z,54.65
2022-12-15T20:31:22.934Z,51.40
2022-12-15T20:33:51.245Z,54.78
2022-12-15T20:36:26.645Z,53.65
2022-12-15T20:38:54.736Z,55.78
2022-12-15T20:41:26.259Z,53.22
2022-12-15T20:43:55.234Z,53.13
2022-12-15T20:46:25.298Z,53.78
2022-12-15T20:48:54.633Z,53.65
2022-12-15T20:51:30.120Z,54.38
2022-12-15T20:54:00.688Z,53.30
2022-12-15T20:56:29.023Z,52.42
2022-12-15T20:58:58.200Z,52.15
2022-12-15T21:01:27.195Z,51.78
2022-12-15T21:03:56.891Z,53.63
2022-12-15T21:06:25.535Z,55.15
2022-12-15T21:08:52.796Z,51.33
2022-12-15T21:11:21.193Z,53.33
2022-12-15T21:13:49.716Z,53.40
2022-12-15T21:16:19.879Z,52.50
2022-12-15T21:21:38.328Z,52.08
2022-12-15T21:24:15.773Z,51.30
2022-12-15T21:26:43.826Z,50.03
2022-12-15T21:29:16.628Z,49.78
2022-12-15T21:31:44.634Z,52.15
2022-12-15T21:34:12.783Z,48.67
2022-12-15T21:36:42.700Z,50.50
2022-12-15T21:39:18.678Z,48.42
2022-12-15T21:41:45.955Z,50.72
2022-12-15T21:44:14.313Z,49.28
2022-12-15T21:46:42.097Z,52.78
2022-12-15T21:49:14.667Z,51.85
2022-12-15T21:51:47.203Z,51.83
2022-12-15T21:54:16.162Z,53.10
2022-12-15T21:56:43.498Z,53.03
2022-12-15T21:59:14.134Z,53.13
2022-12-15T22:01:41.401Z,54.17
2022-12-15T22:04:15.769Z,53.15
2022-12-15T22:06:47.279Z,52.78
2022-12-15T22:11:48.871Z,52.33
2022-12-15T22:14:19.495Z,52.97
2022-12-15T22:16:46.587Z,55.40
2022-12-15T22:19:13.880Z,52.22
2022-12-15T22:21:42.412Z,55.45
2022-12-15T22:24:10.508Z,54.78
2022-12-15T22:26:39.231Z,53.47
2022-12-15T22:29:15.676Z,53.83
2022-12-15T22:31:43.135Z,54.30
2022-12-15T22:34:14.030Z,53.00
2022-12-15T22:36:41.860Z,53.08
2022-12-15T22:39:11.182Z,52.95
2022-12-15T22:41:45.128Z,53.95
2022-12-15T22:44:33.188Z,53.85
2022-12-15T22:47:02.421Z,54.67
2022-12-15T22:49:34.680Z,54.72
2022-12-15T22:52:02.041Z,54.80
2022-12-15T22:54:32.000Z,53.65
2022-12-15T22:57:05.435Z,55.75
2022-12-15T22:59:35.937Z,54.55
2022-12-15T23:02:03.649Z,53.95
2022-12-15T23:04:32.256Z,54.40
2022-12-15T23:07:01.787Z,51.42
2022-12-15T23:09:29.185Z,52.75
2022-12-15T23:11:56.428Z,53.42
2022-12-15T23:14:43.388Z,53.83
2022-12-15T23:17:11.579Z,54.65
2022-12-15T23:19:44.229Z,51.42
2022-12-15T23:22:11.504Z,51.42
2022-12-15T23:24:39.107Z,54.10
2022-12-15T23:27:11.334Z,53.85
2022-12-15T23:29:38.597Z,53.42
2022-12-15T23:32:06.128Z,52.80
2022-12-15T23:34:33.427Z,52.78
2022-12-15T23:37:00.947Z,53.05
2022-12-15T23:39:28.339Z,55.10
2022-12-15T23:41:55.515Z,56.22
2022-12-15T23:44:22.513Z,55.50
2022-12-15T23:46:49.733Z,57.90
2022-12-15T23:49:17.261Z,54.83
2022-12-15T23:51:44.478Z,56.20
2022-12-15T23:54:11.472Z,55.75
2022-12-15T23:56:40.176Z,56.67
2022-12-15T23:59:07.789Z,55.03
